sensor_id;sensor_type;location;lat;lon;timestamp;pressure;altitude;pressure_sealevel;temperature;humidity
56737;BME280;42618;51.226;4.910;2023-08-12T00:01:17;49589.44;;;-146.94;100.00
56737;BME280;42618;51.226;4.910;2023-08-12T00:03:47;49613.38;;;-146.94;100.00
56737;BME280;42618;51.226;4.910;2023-08-12T00:06:15;49585.47;;;-146.94;100.00
56737;BME280;42618;51.226;4.910;2023-08-12T00:08:41;49571.50;;;-146.94;100.00
56737;BME280;42618;51.226;4.910;2023-08-12T00:11:08;49595.44;;;-146.94;100.00
56737;BME280;42618;51.226;4.910;2023-08-12T00:13:35;49599.41;;;-146.94;100.00
56737;BME280;42618;51.226;4.910;2023-08-12T00:16:02;49607.41;;;-146.94;100.00
56737;BME280;42618;51.226;4.910;2023-08-12T00:18:29;49593.44;;;-146.94;100.00
56737;BME280;42618;51.226;4.910;2023-08-12T00:20:55;49599.41;;;-146.94;100.00
56737;BME280;42618;51.226;4.910;2023-08-12T00:23:22;49599.41;;;-146.94;100.00
56737;BME280;42618;51.226;4.910;2023-08-12T00:25:49;49611.38;;;-146.94;100.00
56737;BME280;42618;51.226;4.910;2023-08-12T00:28:16;49621.34;;;-146.94;100.00
56737;BME280;42618;51.226;4.910;2023-08-12T00:30:42;49611.38;;;-146.94;100.00
56737;BME280;42618;51.226;4.910;2023-08-12T00:33:09;49591.44;;;-146.94;100.00
56737;BME280;42618;51.226;4.910;2023-08-12T00:35:36;49619.34;;;-146.94;100.00
56737;BME280;42618;51.226;4.910;2023-08-12T00:38:03;49611.38;;;-146.94;100.00
56737;BME280;42618;51.226;4.910;2023-08-12T00:40:29;49603.41;;;-146.94;100.00
56737;BME280;42618;51.226;4.910;2023-08-12T00:42:56;49623.34;;;-146.94;100.00
56737;BME280;42618;51.226;4.910;2023-08-12T00:45:23;49599.41;;;-146.94;100.00
56737;BME280;42618;51.226;4.910;2023-08-12T00:47:50;49603.41;;;-146.94;100.00
56737;BME280;42618;51.226;4.910;2023-08-12T00:50:17;49643.28;;;-146.94;100.00
56737;BME280;42618;51.226;4.910;2023-08-12T00:52:44;49631.31;;;-146.94;100.00
56737;BME280;42618;51.226;4.910;2023-08-12T00:55:12;49617.38;;;-146.94;100.00
56737;BME280;42618;51.226;4.910;2023-08-12T00:57:39;49647.25;;;-146.94;100.00
56737;BME280;42618;51.226;4.910;2023-08-12T01:00:07;49599.41;;;-146.94;100.00
56737;BME280;42618;51.226;4.910;2023-08-12T01:02:34;49623.34;;;-146.94;100.00
56737;BME280;42618;51.226;4.910;2023-08-12T01:05:04;49611.38;;;-146.94;100.00
56737;BME280;42618;51.226;4.910;2023-08-12T01:07:30;49603.41;;;-146.94;100.00
56737;BME280;42618;51.226;4.910;2023-08-12T01:09:57;49619.34;;;-146.94;100.00
56737;BME280;42618;51.226;4.910;2023-08-12T01:12:29;49587.47;;;-146.94;100.00
56737;BME280;42618;51.226;4.910;2023-08-12T01:17:33;49623.34;;;-146.94;100.00
56737;BME280;42618;51.226;4.910;2023-08-12T01:20:01;49607.41;;;-146.94;100.00
56737;BME280;42618;51.226;4.910;2023-08-12T01:22:38;49595.44;;;-146.94;100.00
56737;BME280;42618;51.226;4.910;2023-08-12T01:25:08;49621.34;;;-146.94;100.00
56737;BME280;42618;51.226;4.910;2023-08-12T01:27:36;49637.28;;;-146.94;100.00
56737;BME280;42618;51.226;4.910;2023-08-12T01:30:05;49607.41;;;-146.94;100.00
56737;BME280;42618;51.226;4.910;2023-08-12T01:32:58;49603.41;;;-146.94;100.00
56737;BME280;42618;51.226;4.910;2023-08-12T01:35:44;49621.34;;;-146.94;100.00
56737;BME280;42618;51.226;4.910;2023-08-12T01:38:15;49619.34;;;-146.94;100.00
56737;BME280;42618;51.226;4.910;2023-08-12T01:40:43;49583.47;;;-146.94;100.00
56737;BME280;42618;51.226;4.910;2023-08-12T01:43:11;49597.44;;;-146.94;100.00
56737;BME280;42618;51.226;4.910;2023-08-12T01:45:38;49577.50;;;-146.94;100.00
56737;BME280;42618;51.226;4.910;2023-08-12T01:48:05;49629.31;;;-146.94;100.00
56737;BME280;42618;51.226;4.910;2023-08-12T01:50:33;49587.47;;;-146.94;100.00
56737;BME280;42618;51.226;4.910;2023-08-12T01:52:59;49619.34;;;-146.94;100.00
56737;BME280;42618;51.226;4.910;2023-08-12T01:55:29;49645.28;;;-146.94;100.00
56737;BME280;42618;51.226;4.910;2023-08-12T01:57:55;49627.31;;;-146.94;100.00
56737;BME280;42618;51.226;4.910;2023-08-12T02:00:23;49619.34;;;-146.94;100.00
56737;BME280;42618;51.226;4.910;2023-08-12T02:02:50;49639.28;;;-146.94;100.00
56737;BME280;42618;51.226;4.910;2023-08-12T02:05:17;49607.41;;;-146.94;100.00
56737;BME280;42618;51.226;4.910;2023-08-12T02:07:43;49623.34;;;-146.94;100.00
56737;BME280;42618;51.226;4.910;2023-08-12T02:10:11;49611.38;;;-146.94;100.00
56737;BME280;42618;51.226;4.910;2023-08-12T02:12:38;49601.41;;;-146.94;100.00
56737;BME280;42618;51.226;4.910;2023-08-12T02:15:05;49579.47;;;-146.94;100.00
56737;BME280;42618;51.226;4.910;2023-08-12T02:17:32;49611.38;;;-146.94;100.00
56737;BME280;42618;51.226;4.910;2023-08-12T02:19:59;49607.41;;;-146.94;100.00
56737;BME280;42618;51.226;4.910;2023-08-12T02:22:26;49615.38;;;-146.94;100.00
56737;BME280;42618;51.226;4.910;2023-08-12T02:24:52;49589.44;;;-146.94;100.00
56737;BME280;42618;51.226;4.910;2023-08-12T02:27:20;49619.34;;;-146.94;100.00
56737;BME280;42618;51.226;4.910;2023-08-12T02:29:46;49649.25;;;-146.94;100.00
56737;BME280;42618;51.226;4.910;2023-08-12T02:32:13;49619.34;;;-146.94;100.00
56737;BME280;42618;51.226;4.910;2023-08-12T02:34:40;49615.38;;;-146.94;100.00
56737;BME280;42618;51.226;4.910;2023-08-12T02:37:09;49619.34;;;-146.94;100.00
56737;BME280;42618;51.226;4.910;2023-08-12T02:39:36;49625.34;;;-146.94;100.00
56737;BME280;42618;51.226;4.910;2023-08-12T02:42:03;49613.38;;;-146.94;100.00
56737;BME280;42618;51.226;4.910;2023-08-12T02:44:30;49649.25;;;-146.94;100.00
56737;BME280;42618;51.226;4.910;2023-08-12T02:46:57;49603.41;;;-146.94;100.00
56737;BME280;42618;51.226;4.910;2023-08-12T02:49:24;49567.53;;;-146.94;100.00
56737;BME280;42618;51.226;4.910;2023-08-12T02:51:50;49631.31;;;-146.94;100.00
56737;BME280;42618;51.226;4.910;2023-08-12T02:54:17;49607.41;;;-146.94;100.00
56737;BME280;42618;51.226;4.910;2023-08-12T02:56:44;49655.25;;;-146.94;100.00
56737;BME280;42618;51.226;4.910;2023-08-12T02:59:11;49647.25;;;-146.94;100.00
56737;BME280;42618;51.226;4.910;2023-08-12T03:01:41;49623.34;;;-146.94;100.00
56737;BME280;42618;51.226;4.910;2023-08-12T03:04:08;49603.41;;;-146.94;100.00
56737;BME280;42618;51.226;4.910;2023-08-12T03:06:35;49615.38;;;-146.94;100.00
56737;BME280;42618;51.226;4.910;2023-08-12T03:09:02;49645.28;;;-146.94;100.00
56737;BME280;42618;51.226;4.910;2023-08-12T03:11:29;49595.44;;;-146.94;100.00
56737;BME280;42618;51.226;4.910;2023-08-12T03:13:58;49649.25;;;-146.94;100.00
56737;BME280;42618;51.226;4.910;2023-08-12T03:16:26;49651.25;;;-146.94;100.00
56737;BME280;42618;51.226;4.910;2023-08-12T03:18:53;49611.38;;;-146.94;100.00
56737;BME280;42618;51.226;4.910;2023-08-12T03:21:19;49627.31;;;-146.94;100.00
56737;BME280;42618;51.226;4.910;2023-08-12T03:23:47;49619.34;;;-146.94;100.00
56737;BME280;42618;51.226;4.910;2023-08-12T03:26:14;49623.34;;;-146.94;100.00
56737;BME280;42618;51.226;4.910;2023-08-12T03:28:41;49607.41;;;-146.94;100.00
56737;BME280;42618;51.226;4.910;2023-08-12T03:31:12;49635.31;;;-146.94;100.00
56737;BME280;42618;51.226;4.910;2023-08-12T03:33:39;49667.19;;;-146.94;100.00
56737;BME280;42618;51.226;4.910;2023-08-12T03:36:06;49633.31;;;-146.94;100.00
56737;BME280;42618;51.226;4.910;2023-08-12T03:38:33;49627.31;;;-146.94;100.00
56737;BME280;42618;51.226;4.910;2023-08-12T03:41:03;49605.41;;;-146.94;100.00
56737;BME280;42618;51.226;4.910;2023-08-12T03:43:32;49655.25;;;-146.94;100.00
56737;BME280;42618;51.226;4.910;2023-08-12T03:46:00;49627.31;;;-146.94;100.00
56737;BME280;42618;51.226;4.910;2023-08-12T03:48:27;49613.38;;;-146.94;100.00
56737;BME280;42618;51.226;4.910;2023-08-12T03:50:55;49607.41;;;-146.94;100.00
56737;BME280;42618;51.226;4.910;2023-08-12T03:53:21;49617.38;;;-146.94;100.00
56737;BME280;42618;51.226;4.910;2023-08-12T03:55:49;49645.28;;;-146.94;100.00
56737;BME280;42618;51.226;4.910;2023-08-12T03:58:17;49619.34;;;-146.94;100.00
56737;BME280;42618;51.226;4.910;2023-08-12T04:00:45;49619.34;;;-146.94;100.00
56737;BME280;42618;51.226;4.910;2023-08-12T04:03:14;49653.25;;;-146.94;100.00
56737;BME280;42618;51.226;4.910;2023-08-12T04:05:51;49597.44;;;-146.94;100.00
56737;BME280;42618;51.226;4.910;2023-08-12T04:08:22;49663.22;;;-146.94;100.00
56737;BME280;42618;51.226;4.910;2023-08-12T04:10:50;49633.31;;;-146.94;100.00
56737;BME280;42618;51.226;4.910;2023-08-12T04:13:17;49651.25;;;-146.94;100.00
56737;BME280;42618;51.226;4.910;2023-08-12T04:15:49;49621.34;;;-146.94;100.00
56737;BME280;42618;51.226;4.910;2023-08-12T04:18:16;49679.16;;;-146.94;100.00
56737;BME280;42618;51.226;4.910;2023-08-12T04:20:45;49607.41;;;-146.94;100.00
56737;BME280;42618;51.226;4.910;2023-08-12T04:23:13;49657.22;;;-146.94;100.00
56737;BME280;42618;51.226;4.910;2023-08-12T04:25:40;49655.25;;;-146.94;100.00
56737;BME280;42618;51.226;4.910;2023-08-12T04:28:09;49623.34;;;-146.94;100.00
56737;BME280;42618;51.226;4.910;2023-08-12T04:30:46;49647.25;;;-146.94;100.00
56737;BME280;42618;51.226;4.910;2023-08-12T04:33:15;49629.31;;;-146.94;100.00
56737;BME280;42618;51.226;4.910;2023-08-12T04:35:42;49641.28;;;-146.94;100.00
56737;BME280;42618;51.226;4.910;2023-08-12T04:38:10;49615.38;;;-146.94;100.00
56737;BME280;42618;51.226;4.910;2023-08-12T04:40:39;49685.13;;;-146.94;100.00
56737;BME280;42618;51.226;4.910;2023-08-12T04:43:10;49615.38;;;-146.94;100.00
56737;BME280;42618;51.226;4.910;2023-08-12T04:45:37;49663.22;;;-146.94;100.00
56737;BME280;42618;51.226;4.910;2023-08-12T04:48:07;49635.31;;;-146.94;100.00
56737;BME280;42618;51.226;4.910;2023-08-12T04:50:35;49635.31;;;-146.94;100.00
56737;BME280;42618;51.226;4.910;2023-08-12T04:53:02;49625.34;;;-146.94;100.00
56737;BME280;42618;51.226;4.910;2023-08-12T04:55:30;49667.19;;;-146.94;100.00
56737;BME280;42618;51.226;4.910;2023-08-12T04:57:59;49643.28;;;-146.94;100.00
56737;BME280;42618;51.226;4.910;2023-08-12T05:00:25;49651.25;;;-146.94;100.00
56737;BME280;42618;51.226;4.910;2023-08-12T05:02:56;49643.28;;;-146.94;100.00
56737;BME280;42618;51.226;4.910;2023-08-12T05:05:25;49621.34;;;-146.94;100.00
56737;BME280;42618;51.226;4.910;2023-08-12T05:07:53;49663.22;;;-146.94;100.00
56737;BME280;42618;51.226;4.910;2023-08-12T05:10:19;49661.22;;;-146.94;100.00
56737;BME280;42618;51.226;4.910;2023-08-12T05:12:47;49661.22;;;-146.94;100.00
56737;BME280;42618;51.226;4.910;2023-08-12T05:15:15;49619.34;;;-146.94;100.00
56737;BME280;42618;51.226;4.910;2023-08-12T05:17:42;49639.28;;;-146.94;100.00
56737;BME280;42618;51.226;4.910;2023-08-12T05:20:11;49673.19;;;-146.94;100.00
56737;BME280;42618;51.226;4.910;2023-08-12T05:22:37;49629.31;;;-146.94;100.00
56737;BME280;42618;51.226;4.910;2023-08-12T05:25:05;49635.31;;;-146.94;100.00
56737;BME280;42618;51.226;4.910;2023-08-12T05:27:32;49635.31;;;-146.94;100.00
56737;BME280;42618;51.226;4.910;2023-08-12T05:29:58;49643.28;;;-146.94;100.00
56737;BME280;42618;51.226;4.910;2023-08-12T05:32:25;49651.25;;;-146.94;100.00
56737;BME280;42618;51.226;4.910;2023-08-12T05:34:52;49623.34;;;-146.94;100.00
56737;BME280;42618;51.226;4.910;2023-08-12T05:37:19;49631.31;;;-146.94;100.00
56737;BME280;42618;51.226;4.910;2023-08-12T05:39:46;49627.31;;;-146.94;100.00
56737;BME280;42618;51.226;4.910;2023-08-12T05:42:13;49641.28;;;-146.94;100.00
56737;BME280;42618;51.226;4.910;2023-08-12T05:44:41;49647.25;;;-146.94;100.00
56737;BME280;42618;51.226;4.910;2023-08-12T05:47:08;49665.22;;;-146.94;100.00
56737;BME280;42618;51.226;4.910;2023-08-12T05:49:35;49621.34;;;-146.94;100.00
56737;BME280;42618;51.226;4.910;2023-08-12T05:52:02;49635.31;;;-146.94;100.00
56737;BME280;42618;51.226;4.910;2023-08-12T05:54:29;49629.31;;;-146.94;100.00
56737;BME280;42618;51.226;4.910;2023-08-12T05:56:55;49627.31;;;-146.94;100.00
56737;BME280;42618;51.226;4.910;2023-08-12T05:59:22;49651.25;;;-146.94;100.00
56737;BME280;42618;51.226;4.910;2023-08-12T06:01:49;49617.38;;;-146.94;100.00
56737;BME280;42618;51.226;4.910;2023-08-12T06:04:15;49617.38;;;-146.94;100.00
56737;BME280;42618;51.226;4.910;2023-08-12T06:06:42;49607.41;;;-146.94;100.00
56737;BME280;42618;51.226;4.910;2023-08-12T06:09:09;49631.31;;;-146.94;100.00
56737;BME280;42618;51.226;4.910;2023-08-12T06:11:36;49647.25;;;-146.94;100.00
56737;BME280;42618;51.226;4.910;2023-08-12T06:14:03;49613.38;;;-146.94;100.00
56737;BME280;42618;51.226;4.910;2023-08-12T06:16:29;49621.34;;;-146.94;100.00
56737;BME280;42618;51.226;4.910;2023-08-12T06:18:56;49639.28;;;-146.94;100.00
56737;BME280;42618;51.226;4.910;2023-08-12T06:21:23;49611.38;;;-146.94;100.00
56737;BME280;42618;51.226;4.910;2023-08-12T06:23:49;49647.25;;;-146.94;100.00
56737;BME280;42618;51.226;4.910;2023-08-12T06:26:17;49667.19;;;-146.94;100.00
56737;BME280;42618;51.226;4.910;2023-08-12T06:28:43;49619.34;;;-146.94;100.00
56737;BME280;42618;51.226;4.910;2023-08-12T06:31:10;49619.34;;;-146.94;100.00
56737;BME280;42618;51.226;4.910;2023-08-12T06:33:37;49623.34;;;-146.94;100.00
56737;BME280;42618;51.226;4.910;2023-08-12T06:36:04;49663.22;;;-146.94;100.00
56737;BME280;42618;51.226;4.910;2023-08-12T06:38:31;49647.25;;;-146.94;100.00
56737;BME280;42618;51.226;4.910;2023-08-12T06:40:57;49643.28;;;-146.94;100.00
56737;BME280;42618;51.226;4.910;2023-08-12T06:43:24;49649.25;;;-146.94;100.00
56737;BME280;42618;51.226;4.910;2023-08-12T06:45:55;49637.28;;;-146.94;100.00
56737;BME280;42618;51.226;4.910;2023-08-12T06:48:22;49619.34;;;-146.94;100.00
56737;BME280;42618;51.226;4.910;2023-08-12T06:50:55;49667.19;;;-146.94;100.00
56737;BME280;42618;51.226;4.910;2023-08-12T06:53:22;49661.22;;;-146.94;100.00
56737;BME280;42618;51.226;4.910;2023-08-12T06:55:49;49659.22;;;-146.94;100.00
56737;BME280;42618;51.226;4.910;2023-08-12T06:58:16;49647.25;;;-146.94;100.00
56737;BME280;42618;51.226;4.910;2023-08-12T07:00:42;49671.19;;;-146.94;100.00
56737;BME280;42618;51.226;4.910;2023-08-12T07:03:09;49643.28;;;-146.94;100.00
56737;BME280;42618;51.226;4.910;2023-08-12T07:05:36;49677.16;;;-146.94;100.00
56737;BME280;42618;51.226;4.910;2023-08-12T07:08:03;49643.28;;;-146.94;100.00
56737;BME280;42618;51.226;4.910;2023-08-12T07:10:30;49635.31;;;-146.94;100.00
56737;BME280;42618;51.226;4.910;2023-08-12T07:12:57;49659.22;;;-146.94;100.00
56737;BME280;42618;51.226;4.910;2023-08-12T07:15:23;49663.22;;;-146.94;100.00
56737;BME280;42618;51.226;4.910;2023-08-12T07:17:50;49631.31;;;-146.94;100.00
56737;BME280;42618;51.226;4.910;2023-08-12T07:20:17;49633.31;;;-146.94;100.00
56737;BME280;42618;51.226;4.910;2023-08-12T07:22:44;49631.31;;;-146.94;100.00
56737;BME280;42618;51.226;4.910;2023-08-12T07:25:11;49645.28;;;-146.94;100.00
56737;BME280;42618;51.226;4.910;2023-08-12T07:27:37;49645.28;;;-146.94;100.00
56737;BME280;42618;51.226;4.910;2023-08-12T07:30:04;49659.22;;;-146.94;100.00
56737;BME280;42618;51.226;4.910;2023-08-12T07:32:31;49653.25;;;-146.94;100.00
56737;BME280;42618;51.226;4.910;2023-08-12T07:34:58;49675.19;;;-146.94;100.00
56737;BME280;42618;51.226;4.910;2023-08-12T07:37:26;49633.31;;;-146.94;100.00
56737;BME280;42618;51.226;4.910;2023-08-12T07:39:52;49653.25;;;-146.94;100.00
56737;BME280;42618;51.226;4.910;2023-08-12T07:42:20;49647.25;;;-146.94;100.00
56737;BME280;42618;51.226;4.910;2023-08-12T07:44:46;49643.28;;;-146.94;100.00
56737;BME280;42618;51.226;4.910;2023-08-12T07:47:13;49641.28;;;-146.94;100.00
56737;BME280;42618;51.226;4.910;2023-08-12T07:49:42;49635.31;;;-146.94;100.00
56737;BME280;42618;51.226;4.910;2023-08-12T07:52:09;49667.19;;;-146.94;100.00
56737;BME280;42618;51.226;4.910;2023-08-12T07:54:36;49659.22;;;-146.94;100.00
56737;BME280;42618;51.226;4.910;2023-08-12T07:57:03;49651.25;;;-146.94;100.00
56737;BME280;42618;51.226;4.910;2023-08-12T07:59:30;49663.22;;;-146.94;100.00
56737;BME280;42618;51.226;4.910;2023-08-12T08:01:57;49653.25;;;-146.94;100.00
56737;BME280;42618;51.226;4.910;2023-08-12T08:04:23;49611.38;;;-146.94;100.00
56737;BME280;42618;51.226;4.910;2023-08-12T08:06:50;49667.19;;;-146.94;100.00
56737;BME280;42618;51.226;4.910;2023-08-12T08:09:17;49633.31;;;-146.94;100.00
56737;BME280;42618;51.226;4.910;2023-08-12T08:11:44;49657.22;;;-146.94;100.00
56737;BME280;42618;51.226;4.910;2023-08-12T08:14:10;49657.22;;;-146.94;100.00
56737;BME280;42618;51.226;4.910;2023-08-12T08:16:37;49647.25;;;-146.94;100.00
56737;BME280;42618;51.226;4.910;2023-08-12T08:19:07;49651.25;;;-146.94;100.00
56737;BME280;42618;51.226;4.910;2023-08-12T08:21:39;49655.25;;;-146.94;100.00
56737;BME280;42618;51.226;4.910;2023-08-12T08:24:06;49639.28;;;-146.94;100.00
56737;BME280;42618;51.226;4.910;2023-08-12T08:26:32;49627.31;;;-146.94;100.00
56737;BME280;42618;51.226;4.910;2023-08-12T08:28:59;49617.38;;;-146.94;100.00
56737;BME280;42618;51.226;4.910;2023-08-12T08:31:26;49609.38;;;-146.94;100.00
56737;BME280;42618;51.226;4.910;2023-08-12T08:33:53;49613.38;;;-146.94;100.00
56737;BME280;42618;51.226;4.910;2023-08-12T08:36:19;49627.31;;;-146.94;100.00
56737;BME280;42618;51.226;4.910;2023-08-12T08:38:46;49615.38;;;-146.94;100.00
56737;BME280;42618;51.226;4.910;2023-08-12T08:41:13;49643.28;;;-146.94;100.00
56737;BME280;42618;51.226;4.910;2023-08-12T08:43:43;49619.34;;;-146.94;100.00
56737;BME280;42618;51.226;4.910;2023-08-12T08:46:16;49663.22;;;-146.94;100.00
56737;BME280;42618;51.226;4.910;2023-08-12T08:48:43;49629.31;;;-146.94;100.00
56737;BME280;42618;51.226;4.910;2023-08-12T08:51:11;49661.22;;;-146.94;100.00
56737;BME280;42618;51.226;4.910;2023-08-12T08:53:38;49665.22;;;-146.94;100.00
56737;BME280;42618;51.226;4.910;2023-08-12T08:56:08;49641.28;;;-146.94;100.00
56737;BME280;42618;51.226;4.910;2023-08-12T08:58:41;49657.22;;;-146.94;100.00
56737;BME280;42618;51.226;4.910;2023-08-12T09:01:08;49657.22;;;-146.94;100.00
56737;BME280;42618;51.226;4.910;2023-08-12T09:03:38;49663.22;;;-146.94;100.00
56737;BME280;42618;51.226;4.910;2023-08-12T09:06:05;49645.28;;;-146.94;100.00
56737;BME280;42618;51.226;4.910;2023-08-12T09:08:32;49643.28;;;-146.94;100.00
56737;BME280;42618;51.226;4.910;2023-08-12T09:11:00;49631.31;;;-146.94;100.00
56737;BME280;42618;51.226;4.910;2023-08-12T09:13:29;49621.34;;;-146.94;99.89
56737;BME280;42618;51.226;4.910;2023-08-12T09:15:56;49623.34;;;-146.94;100.00
56737;BME280;42618;51.226;4.910;2023-08-12T09:18:22;49617.38;;;-146.94;100.00
56737;BME280;42618;51.226;4.910;2023-08-12T09:20:53;49613.38;;;-146.94;100.00
56737;BME280;42618;51.226;4.910;2023-08-12T09:23:20;49651.25;;;-146.94;100.00
56737;BME280;42618;51.226;4.910;2023-08-12T09:25:47;49647.25;;;-146.94;100.00
56737;BME280;42618;51.226;4.910;2023-08-12T09:28:14;49635.31;;;-146.94;100.00
56737;BME280;42618;51.226;4.910;2023-08-12T09:30:42;49629.31;;;-146.94;100.00
56737;BME280;42618;51.226;4.910;2023-08-12T09:33:08;49643.28;;;-146.94;100.00
56737;BME280;42618;51.226;4.910;2023-08-12T09:35:39;49641.28;;;-146.94;97.85
56737;BME280;42618;51.226;4.910;2023-08-12T09:38:10;49619.34;;;-146.94;98.62
56737;BME280;42618;51.226;4.910;2023-08-12T09:40:38;49633.31;;;-146.94;98.01
56737;BME280;42618;51.226;4.910;2023-08-12T09:43:05;49621.34;;;-146.94;97.90
56737;BME280;42618;51.226;4.910;2023-08-12T09:45:34;49655.25;;;-146.94;97.00
56737;BME280;42618;51.226;4.910;2023-08-12T09:48:02;49625.34;;;-146.94;96.45
56737;BME280;42618;51.226;4.910;2023-08-12T09:50:29;49623.34;;;-146.94;93.80
56737;BME280;42618;51.226;4.910;2023-08-12T09:52:57;49599.41;;;-146.94;91.95
56737;BME280;42618;51.226;4.910;2023-08-12T09:55:24;49611.38;;;-146.94;86.06
56737;BME280;42618;51.226;4.910;2023-08-12T09:57:52;49565.53;;;-146.94;86.86
56737;BME280;42618;51.226;4.910;2023-08-12T10:00:21;49603.41;;;-146.94;84.15
56737;BME280;42618;51.226;4.910;2023-08-12T10:02:50;49593.44;;;-146.94;85.01
56737;BME280;42618;51.226;4.910;2023-08-12T10:05:24;49583.47;;;-146.94;84.23
56737;BME280;42618;51.226;4.910;2023-08-12T10:07:54;49617.38;;;-146.94;84.29
56737;BME280;42618;51.226;4.910;2023-08-12T10:10:21;49623.34;;;-146.94;85.21
56737;BME280;42618;51.226;4.910;2023-08-12T10:12:51;49607.41;;;-146.94;87.00
56737;BME280;42618;51.226;4.910;2023-08-12T10:15:19;49631.31;;;-146.94;87.17
56737;BME280;42618;51.226;4.910;2023-08-12T10:17:46;49599.41;;;-146.94;86.48
56737;BME280;42618;51.226;4.910;2023-08-12T10:20:19;49607.41;;;-146.94;86.04
56737;BME280;42618;51.226;4.910;2023-08-12T10:22:47;49583.47;;;-146.94;80.03
56737;BME280;42618;51.226;4.910;2023-08-12T10:25:18;49593.44;;;-146.94;79.32
56737;BME280;42618;51.226;4.910;2023-08-12T10:27:45;49611.38;;;-146.94;78.14
56737;BME280;42618;51.226;4.910;2023-08-12T10:30:13;49615.38;;;-146.94;73.38
56737;BME280;42618;51.226;4.910;2023-08-12T10:32:40;49609.38;;;-146.94;74.05
56737;BME280;42618;51.226;4.910;2023-08-12T10:35:08;49595.44;;;-146.94;75.38
56737;BME280;42618;51.226;4.910;2023-08-12T10:37:35;49611.38;;;-146.94;76.80
56737;BME280;42618;51.226;4.910;2023-08-12T10:40:03;49613.38;;;-146.94;77.13
56737;BME280;42618;51.226;4.910;2023-08-12T10:42:47;49561.53;;;-146.94;79.43
56737;BME280;42618;51.226;4.910;2023-08-12T10:45:16;49597.44;;;-146.94;78.92
56737;BME280;42618;51.226;4.910;2023-08-12T10:47:48;49601.41;;;-146.94;77.95
56737;BME280;42618;51.226;4.910;2023-08-12T10:50:25;49583.47;;;-146.94;77.73
56737;BME280;42618;51.226;4.910;2023-08-12T10:52:53;49605.41;;;-146.94;77.53
56737;BME280;42618;51.226;4.910;2023-08-12T10:55:25;49543.59;;;-146.94;74.99
56737;BME280;42618;51.226;4.910;2023-08-12T10:57:54;49593.44;;;-146.94;73.15
56737;BME280;42618;51.226;4.910;2023-08-12T11:00:24;49577.50;;;-146.94;71.46
56737;BME280;42618;51.226;4.910;2023-08-12T11:02:56;49565.53;;;-146.94;70.52
56737;BME280;42618;51.226;4.910;2023-08-12T11:05:24;49577.50;;;-146.94;66.67
56737;BME280;42618;51.226;4.910;2023-08-12T11:08:01;49575.50;;;-146.94;66.13
56737;BME280;42618;51.226;4.910;2023-08-12T11:10:32;49563.53;;;-146.94;67.42
56737;BME280;42618;51.226;4.910;2023-08-12T11:13:00;49585.47;;;-146.94;66.36
56737;BME280;42618;51.226;4.910;2023-08-12T11:18:01;49557.56;;;-146.94;67.39
56737;BME280;42618;51.226;4.910;2023-08-12T11:20:28;49575.50;;;-146.94;65.09
56737;BME280;42618;51.226;4.910;2023-08-12T11:22:58;49565.53;;;-146.94;65.49
56737;BME280;42618;51.226;4.910;2023-08-12T11:25:28;49559.56;;;-146.94;63.12
56737;BME280;42618;51.226;4.910;2023-08-12T11:27:56;49571.50;;;-146.94;60.98
56737;BME280;42618;51.226;4.910;2023-08-12T11:30:23;49577.50;;;-146.94;62.34
56737;BME280;42618;51.226;4.910;2023-08-12T11:32:52;49597.44;;;-146.94;62.47
56737;BME280;42618;51.226;4.910;2023-08-12T11:35:20;49595.44;;;-146.94;63.87
56737;BME280;42618;51.226;4.910;2023-08-12T11:37:47;49593.44;;;-146.94;60.67
56737;BME280;42618;51.226;4.910;2023-08-12T11:40:15;49539.63;;;-146.94;59.89
56737;BME280;42618;51.226;4.910;2023-08-12T11:42:43;49537.63;;;-146.94;57.54
56737;BME280;42618;51.226;4.910;2023-08-12T11:45:22;49551.56;;;-146.94;58.03
56737;BME280;42618;51.226;4.910;2023-08-12T11:47:48;49575.50;;;-146.94;60.62
56737;BME280;42618;51.226;4.910;2023-08-12T11:50:24;49587.47;;;-146.94;59.51
56737;BME280;42618;51.226;4.910;2023-08-12T11:52:53;49575.50;;;-146.94;55.65
56737;BME280;42618;51.226;4.910;2023-08-12T11:55:21;49595.44;;;-146.94;56.13
56737;BME280;42618;51.226;4.910;2023-08-12T11:57:50;49549.59;;;-146.94;55.31
56737;BME280;42618;51.226;4.910;2023-08-12T12:00:17;49531.63;;;-146.94;56.47
56737;BME280;42618;51.226;4.910;2023-08-12T12:02:51;49563.53;;;-146.94;55.89
56737;BME280;42618;51.226;4.910;2023-08-12T12:05:22;49539.63;;;-146.94;54.61
56737;BME280;42618;51.226;4.910;2023-08-12T12:07:51;49541.59;;;-146.94;51.64
56737;BME280;42618;51.226;4.910;2023-08-12T12:10:30;49575.50;;;-146.94;50.27
56737;BME280;42618;51.226;4.910;2023-08-12T12:13:02;49539.63;;;-146.94;52.81
56737;BME280;42618;51.226;4.910;2023-08-12T12:15:29;49555.56;;;-146.94;49.18
56737;BME280;42618;51.226;4.910;2023-08-12T12:17:56;49533.63;;;-146.94;52.12
56737;BME280;42618;51.226;4.910;2023-08-12T12:20:23;49565.53;;;-146.94;50.67
56737;BME280;42618;51.226;4.910;2023-08-12T12:22:50;49531.63;;;-146.94;52.87
56737;BME280;42618;51.226;4.910;2023-08-12T12:25:17;49579.47;;;-146.94;52.62
56737;BME280;42618;51.226;4.910;2023-08-12T12:27:47;49537.63;;;-146.94;49.00
56737;BME280;42618;51.226;4.910;2023-08-12T12:30:15;49551.56;;;-146.94;46.88
56737;BME280;42618;51.226;4.910;2023-08-12T12:32:42;49559.56;;;-146.94;49.43
56737;BME280;42618;51.226;4.910;2023-08-12T12:35:09;49571.50;;;-146.94;48.27
56737;BME280;42618;51.226;4.910;2023-08-12T12:37:36;49553.56;;;-146.94;49.00
56737;BME280;42618;51.226;4.910;2023-08-12T12:40:04;49565.53;;;-146.94;48.22
56737;BME280;42618;51.226;4.910;2023-08-12T12:42:32;49571.50;;;-146.94;49.83